sensor_id;sensor_type;location;lat;lon;timestamp;P1;durP1;ratioP1;P2;durP2;ratioP2
72422;SDS011;60413;55.658;37.498;2022-12-20T00:01:09;13.00;;;5.35;;
72422;SDS011;60413;55.658;37.498;2022-12-20T00:03:37;13.45;;;5.15;;
72422;SDS011;60413;55.658;37.498;2022-12-20T00:06:03;11.07;;;4.53;;
72422;SDS011;60413;55.658;37.498;2022-12-20T00:08:30;9.80;;;5.05;;
72422;SDS011;60413;55.658;37.498;2022-12-20T00:10:58;11.55;;;4.97;;
72422;SDS011;60413;55.658;37.498;2022-12-20T00:13:24;12.90;;;5.05;;
72422;SDS011;60413;55.658;37.498;2022-12-20T00:16:01;16.25;;;5.40;;
72422;SDS011;60413;55.658;37.498;2022-12-20T00:18:37;13.07;;;5.25;;
72422;SDS011;60413;55.658;37.498;2022-12-20T00:21:06;13.35;;;5.03;;
72422;SDS011;60413;55.658;37.498;2022-12-20T00:23:33;11.05;;;4.03;;
72422;SDS011;60413;55.658;37.498;2022-12-20T00:26:04;12.55;;;5.38;;
72422;SDS011;60413;55.658;37.498;2022-12-20T00:28:42;9.70;;;3.95;;
72422;SDS011;60413;55.658;37.498;2022-12-20T00:31:10;13.95;;;4.78;;
72422;SDS011;60413;55.658;37.498;2022-12-20T00:33:38;15.48;;;5.32;;
72422;SDS011;60413;55.658;37.498;2022-12-20T00:36:07;10.75;;;4.35;;
72422;SDS011;60413;55.658;37.498;2022-12-20T00:38:33;9.85;;;4.97;;
72422;SDS011;60413;55.658;37.498;2022-12-20T00:41:00;10.73;;;4.82;;
72422;SDS011;60413;55.658;37.498;2022-12-20T00:43:28;13.52;;;4.75;;
72422;SDS011;60413;55.658;37.498;2022-12-20T00:45:55;12.40;;;4.13;;
72422;SDS011;60413;55.658;37.498;2022-12-20T00:48:21;12.77;;;3.88;;
72422;SDS011;60413;55.658;37.498;2022-12-20T00:50:47;9.32;;;4.40;;
72422;SDS011;60413;55.658;37.498;2022-12-20T00:53:13;9.20;;;4.50;;
72422;SDS011;60413;55.658;37.498;2022-12-20T00:55:41;11.05;;;4.28;;
72422;SDS011;60413;55.658;37.498;2022-12-20T00:58:08;10.40;;;4.40;;
72422;SDS011;60413;55.658;37.498;2022-12-20T01:00:35;9.82;;;4.00;;
72422;SDS011;60413;55.658;37.498;2022-12-20T01:03:01;11.68;;;4.53;;
72422;SDS011;60413;55.658;37.498;2022-12-20T01:05:27;10.80;;;4.50;;
72422;SDS011;60413;55.658;37.498;2022-12-20T01:07:53;8.80;;;4.07;;
72422;SDS011;60413;55.658;37.498;2022-12-20T01:10:19;8.32;;;4.40;;
72422;SDS011;60413;55.658;37.498;2022-12-20T01:12:45;9.02;;;4.40;;
72422;SDS011;60413;55.658;37.498;2022-12-20T01:15:10;13.07;;;5.50;;
72422;SDS011;60413;55.658;37.498;2022-12-20T01:17:37;10.73;;;4.55;;
72422;SDS011;60413;55.658;37.498;2022-12-20T01:20:03;12.15;;;4.78;;
72422;SDS011;60413;55.658;37.498;2022-12-20T01:22:30;8.68;;;4.43;;
72422;SDS011;60413;55.658;37.498;2022-12-20T01:24:56;10.25;;;4.32;;
72422;SDS011;60413;55.658;37.498;2022-12-20T01:27:22;13.40;;;4.72;;
72422;SDS011;60413;55.658;37.498;2022-12-20T01:29:48;11.82;;;4.57;;
72422;SDS011;60413;55.658;37.498;2022-12-20T01:32:16;13.75;;;5.05;;
72422;SDS011;60413;55.658;37.498;2022-12-20T01:34:42;13.00;;;4.57;;
72422;SDS011;60413;55.658;37.498;2022-12-20T01:37:08;12.80;;;4.78;;
72422;SDS011;60413;55.658;37.498;2022-12-20T01:39:34;10.43;;;4.20;;
72422;SDS011;60413;55.658;37.498;2022-12-20T01:42:00;9.75;;;4.20;;
72422;SDS011;60413;55.658;37.498;2022-12-20T01:46:52;13.57;;;5.18;;
72422;SDS011;60413;55.658;37.498;2022-12-20T01:49:29;13.98;;;5.60;;
72422;SDS011;60413;55.658;37.498;2022-12-20T01:52:02;13.48;;;4.70;;
72422;SDS011;60413;55.658;37.498;2022-12-20T01:54:34;10.00;;;4.63;;
72422;SDS011;60413;55.658;37.498;2022-12-20T01:57:05;10.63;;;4.55;;
72422;SDS011;60413;55.658;37.498;2022-12-20T01:59:36;13.85;;;6.03;;
72422;SDS011;60413;55.658;37.498;2022-12-20T02:02:05;12.05;;;5.40;;
72422;SDS011;60413;55.658;37.498;2022-12-20T02:04:35;12.82;;;5.47;;
72422;SDS011;60413;55.658;37.498;2022-12-20T02:07:01;14.70;;;5.20;;
72422;SDS011;60413;55.658;37.498;2022-12-20T02:09:27;13.07;;;5.28;;
72422;SDS011;60413;55.658;37.498;2022-12-20T02:17:32;14.13;;;4.93;;
72422;SDS011;60413;55.658;37.498;2022-12-20T02:25:43;13.23;;;5.72;;
72422;SDS011;60413;55.658;37.498;2022-12-20T02:31:03;13.32;;;5.60;;
72422;SDS011;60413;55.658;37.498;2022-12-20T02:33:33;17.10;;;6.10;;
72422;SDS011;60413;55.658;37.498;2022-12-20T02:35:59;14.50;;;5.13;;
72422;SDS011;60413;55.658;37.498;2022-12-20T02:41:05;15.00;;;5.93;;
72422;SDS011;60413;55.658;37.498;2022-12-20T02:43:36;17.27;;;5.57;;
72422;SDS011;60413;55.658;37.498;2022-12-20T02:46:24;14.25;;;5.75;;
72422;SDS011;60413;55.658;37.498;2022-12-20T02:48:52;18.23;;;7.05;;
72422;SDS011;60413;55.658;37.498;2022-12-20T02:51:22;13.18;;;5.43;;
72422;SDS011;60413;55.658;37.498;2022-12-20T02:53:54;14.57;;;5.82;;
72422;SDS011;60413;55.658;37.498;2022-12-20T02:56:23;19.58;;;6.85;;
72422;SDS011;60413;55.658;37.498;2022-12-20T02:59:05;12.55;;;5.90;;
72422;SDS011;60413;55.658;37.498;2022-12-20T03:01:44;14.85;;;5.93;;
72422;SDS011;60413;55.658;37.498;2022-12-20T03:04:16;18.92;;;5.80;;
72422;SDS011;60413;55.658;37.498;2022-12-20T03:12:06;13.80;;;5.43;;
72422;SDS011;60413;55.658;37.498;2022-12-20T03:14:35;18.45;;;6.65;;
72422;SDS011;60413;55.658;37.498;2022-12-20T03:17:04;22.25;;;6.88;;
72422;SDS011;60413;55.658;37.498;2022-12-20T03:19:30;22.95;;;8.20;;
72422;SDS011;60413;55.658;37.498;2022-12-20T03:21:57;22.45;;;6.95;;
72422;SDS011;60413;55.658;37.498;2022-12-20T03:24:23;21.00;;;6.93;;
72422;SDS011;60413;55.658;37.498;2022-12-20T03:26:51;13.80;;;5.75;;
72422;SDS011;60413;55.658;37.498;2022-12-20T03:29:28;20.05;;;6.88;;
72422;SDS011;60413;55.658;37.498;2022-12-20T03:31:54;21.17;;;7.22;;
72422;SDS011;60413;55.658;37.498;2022-12-20T03:34:20;16.95;;;6.22;;
72422;SDS011;60413;55.658;37.498;2022-12-20T03:36:46;21.70;;;6.97;;
72422;SDS011;60413;55.658;37.498;2022-12-20T03:39:11;17.15;;;6.22;;
72422;SDS011;60413;55.658;37.498;2022-12-20T03:41:39;20.40;;;7.55;;
72422;SDS011;60413;55.658;37.498;2022-12-20T03:44:06;22.95;;;7.05;;
72422;SDS011;60413;55.658;37.498;2022-12-20T03:46:32;21.95;;;7.10;;
72422;SDS011;60413;55.658;37.498;2022-12-20T03:48:58;20.98;;;7.00;;
72422;SDS011;60413;55.658;37.498;2022-12-20T03:51:24;17.10;;;5.70;;
72422;SDS011;60413;55.658;37.498;2022-12-20T03:53:50;20.95;;;7.18;;
72422;SDS011;60413;55.658;37.498;2022-12-20T03:56:17;19.15;;;6.80;;
72422;SDS011;60413;55.658;37.498;2022-12-20T03:58:43;20.42;;;6.93;;
72422;SDS011;60413;55.658;37.498;2022-12-20T04:01:21;24.80;;;7.78;;
72422;SDS011;60413;55.658;37.498;2022-12-20T04:03:49;19.05;;;7.07;;
72422;SDS011;60413;55.658;37.498;2022-12-20T04:06:15;18.85;;;7.65;;
72422;SDS011;60413;55.658;37.498;2022-12-20T04:08:42;19.10;;;7.75;;
72422;SDS011;60413;55.658;37.498;2022-12-20T04:11:09;22.10;;;7.50;;
72422;SDS011;60413;55.658;37.498;2022-12-20T04:14:01;26.85;;;9.23;;
72422;SDS011;60413;55.658;37.498;2022-12-20T04:16:28;23.23;;;8.57;;
72422;SDS011;60413;55.658;37.498;2022-12-20T04:18:55;23.58;;;7.70;;
72422;SDS011;60413;55.658;37.498;2022-12-20T04:21:26;31.98;;;8.68;;
72422;SDS011;60413;55.658;37.498;2022-12-20T04:23:57;22.92;;;7.75;;
72422;SDS011;60413;55.658;37.498;2022-12-20T04:26:35;23.95;;;7.80;;
72422;SDS011;60413;55.658;37.498;2022-12-20T04:29:02;24.85;;;8.68;;
72422;SDS011;60413;55.658;37.498;2022-12-20T04:31:29;20.77;;;7.72;;
72422;SDS011;60413;55.658;37.498;2022-12-20T04:33:55;25.63;;;7.85;;
72422;SDS011;60413;55.658;37.498;2022-12-20T04:36:21;26.35;;;8.85;;
72422;SDS011;60413;55.658;37.498;2022-12-20T04:38:49;31.20;;;8.65;;
72422;SDS011;60413;55.658;37.498;2022-12-20T04:41:15;25.80;;;9.10;;
72422;SDS011;60413;55.658;37.498;2022-12-20T04:43:50;23.30;;;8.30;;
72422;SDS011;60413;55.658;37.498;2022-12-20T04:46:25;29.52;;;9.82;;
72422;SDS011;60413;55.658;37.498;2022-12-20T04:48:54;25.38;;;8.90;;
72422;SDS011;60413;55.658;37.498;2022-12-20T04:51:20;21.05;;;7.80;;
72422;SDS011;60413;55.658;37.498;2022-12-20T04:53:46;21.20;;;7.57;;
72422;SDS011;60413;55.658;37.498;2022-12-20T04:56:20;29.05;;;9.30;;
72422;SDS011;60413;55.658;37.498;2022-12-20T04:58:49;24.52;;;8.75;;
72422;SDS011;60413;55.658;37.498;2022-12-20T05:01:17;22.85;;;8.55;;
72422;SDS011;60413;55.658;37.498;2022-12-20T05:03:49;22.40;;;8.18;;
72422;SDS011;60413;55.658;37.498;2022-12-20T05:06:16;25.33;;;8.90;;
72422;SDS011;60413;55.658;37.498;2022-12-20T05:08:43;29.00;;;8.90;;
72422;SDS011;60413;55.658;37.498;2022-12-20T05:11:11;29.63;;;10.38;;
72422;SDS011;60413;55.658;37.498;2022-12-20T05:16:36;27.02;;;7.70;;
72422;SDS011;60413;55.658;37.498;2022-12-20T05:19:05;25.13;;;7.97;;
72422;SDS011;60413;55.658;37.498;2022-12-20T05:21:39;19.88;;;6.25;;
72422;SDS011;60413;55.658;37.498;2022-12-20T05:24:23;25.58;;;8.07;;
72422;SDS011;60413;55.658;37.498;2022-12-20T05:27:16;23.85;;;7.28;;
72422;SDS011;60413;55.658;37.498;2022-12-20T05:29:42;20.17;;;7.63;;
72422;SDS011;60413;55.658;37.498;2022-12-20T05:32:09;23.38;;;8.00;;
72422;SDS011;60413;55.658;37.498;2022-12-20T05:34:38;20.23;;;7.10;;
72422;SDS011;60413;55.658;37.498;2022-12-20T05:37:05;19.13;;;7.25;;
72422;SDS011;60413;55.658;37.498;2022-12-20T05:39:37;18.77;;;6.53;;
72422;SDS011;60413;55.658;37.498;2022-12-20T05:42:14;17.08;;;6.32;;
72422;SDS011;60413;55.658;37.498;2022-12-20T05:44:40;25.00;;;8.05;;
72422;SDS011;60413;55.658;37.498;2022-12-20T05:47:06;20.65;;;6.45;;
72422;SDS011;60413;55.658;37.498;2022-12-20T05:49:35;22.13;;;5.97;;
72422;SDS011;60413;55.658;37.498;2022-12-20T05:52:03;21.08;;;7.03;;
72422;SDS011;60413;55.658;37.498;2022-12-20T05:54:29;22.48;;;6.85;;
72422;SDS011;60413;55.658;37.498;2022-12-20T05:59:35;21.42;;;5.13;;
72422;SDS011;60413;55.658;37.498;2022-12-20T06:02:04;18.92;;;6.40;;
72422;SDS011;60413;55.658;37.498;2022-12-20T06:04:32;16.70;;;5.18;;
72422;SDS011;60413;55.658;37.498;2022-12-20T06:07:01;16.63;;;5.95;;
72422;SDS011;60413;55.658;37.498;2022-12-20T06:09:27;21.20;;;6.07;;
72422;SDS011;60413;55.658;37.498;2022-12-20T06:12:05;11.90;;;4.93;;
72422;SDS011;60413;55.658;37.498;2022-12-20T06:14:32;15.75;;;6.28;;
72422;SDS011;60413;55.658;37.498;2022-12-20T06:16:59;14.40;;;5.78;;
72422;SDS011;60413;55.658;37.498;2022-12-20T06:19:25;8.52;;;3.47;;
72422;SDS011;60413;55.658;37.498;2022-12-20T06:21:53;15.60;;;5.28;;
72422;SDS011;60413;55.658;37.498;2022-12-20T06:24:25;8.93;;;4.38;;
72422;SDS011;60413;55.658;37.498;2022-12-20T06:26:52;14.10;;;5.03;;
72422;SDS011;60413;55.658;37.498;2022-12-20T06:29:18;12.80;;;4.05;;
72422;SDS011;60413;55.658;37.498;2022-12-20T06:31:58;15.07;;;4.75;;
72422;SDS011;60413;55.658;37.498;2022-12-20T06:34:50;11.80;;;3.85;;
72422;SDS011;60413;55.658;37.498;2022-12-20T06:37:17;10.15;;;4.03;;
72422;SDS011;60413;55.658;37.498;2022-12-20T06:39:42;14.30;;;4.80;;
72422;SDS011;60413;55.658;37.498;2022-12-20T06:42:12;9.20;;;3.90;;
72422;SDS011;60413;55.658;37.498;2022-12-20T06:44:39;12.05;;;4.63;;
72422;SDS011;60413;55.658;37.498;2022-12-20T06:47:08;13.68;;;4.25;;
72422;SDS011;60413;55.658;37.498;2022-12-20T06:49:34;7.78;;;3.78;;
72422;SDS011;60413;55.658;37.498;2022-12-20T06:52:07;7.22;;;2.88;;
72422;SDS011;60413;55.658;37.498;2022-12-20T06:55:00;9.18;;;3.63;;
72422;SDS011;60413;55.658;37.498;2022-12-20T06:57:28;8.48;;;4.07;;
72422;SDS011;60413;55.658;37.498;2022-12-20T06:59:54;13.95;;;4.78;;
72422;SDS011;60413;55.658;37.498;2022-12-20T07:02:20;11.65;;;4.18;;
72422;SDS011;60413;55.658;37.498;2022-12-20T07:04:46;6.88;;;3.03;;
72422;SDS011;60413;55.658;37.498;2022-12-20T07:07:12;7.82;;;3.53;;
72422;SDS011;60413;55.658;37.498;2022-12-20T07:09:38;10.65;;;3.97;;
72422;SDS011;60413;55.658;37.498;2022-12-20T07:12:06;12.82;;;3.95;;
72422;SDS011;60413;55.658;37.498;2022-12-20T07:14:33;8.35;;;3.72;;
72422;SDS011;60413;55.658;37.498;2022-12-20T07:16:58;9.57;;;3.70;;
72422;SDS011;60413;55.658;37.498;2022-12-20T07:19:24;8.88;;;3.70;;
72422;SDS011;60413;55.658;37.498;2022-12-20T07:21:50;5.43;;;2.65;;
72422;SDS011;60413;55.658;37.498;2022-12-20T07:24:16;16.20;;;3.45;;
72422;SDS011;60413;55.658;37.498;2022-12-20T07:26:43;6.70;;;3.05;;
72422;SDS011;60413;55.658;37.498;2022-12-20T07:29:10;8.45;;;3.42;;
72422;SDS011;60413;55.658;37.498;2022-12-20T07:31:37;8.93;;;2.75;;
72422;SDS011;60413;55.658;37.498;2022-12-20T07:34:03;7.38;;;3.53;;
72422;SDS011;60413;55.658;37.498;2022-12-20T07:36:28;6.63;;;3.30;;
72422;SDS011;60413;55.658;37.498;2022-12-20T07:38:54;8.35;;;3.38;;
72422;SDS011;60413;55.658;37.498;2022-12-20T07:41:20;7.63;;;2.92;;
72422;SDS011;60413;55.658;37.498;2022-12-20T07:43:46;5.57;;;2.78;;
72422;SDS011;60413;55.658;37.498;2022-12-20T07:46:12;8.13;;;2.85;;
72422;SDS011;60413;55.658;37.498;2022-12-20T07:48:39;6.13;;;3.03;;
72422;SDS011;60413;55.658;37.498;2022-12-20T07:51:05;7.43;;;2.95;;
72422;SDS011;60413;55.658;37.498;2022-12-20T07:53:35;5.38;;;2.70;;
72422;SDS011;60413;55.658;37.498;2022-12-20T07:56:05;6.88;;;2.88;;
72422;SDS011;60413;55.658;37.498;2022-12-20T07:58:33;8.18;;;2.72;;
72422;SDS011;60413;55.658;37.498;2022-12-20T08:01:04;6.97;;;2.67;;
72422;SDS011;60413;55.658;37.498;2022-12-20T08:03:37;8.85;;;3.55;;
72422;SDS011;60413;55.658;37.498;2022-12-20T08:06:08;7.63;;;3.13;;
72422;SDS011;60413;55.658;37.498;2022-12-20T08:08:35;9.68;;;3.47;;
72422;SDS011;60413;55.658;37.498;2022-12-20T08:11:06;10.05;;;3.13;;
72422;SDS011;60413;55.658;37.498;2022-12-20T08:13:34;8.45;;;2.92;;
72422;SDS011;60413;55.658;37.498;2022-12-20T08:16:00;11.65;;;3.13;;
72422;SDS011;60413;55.658;37.498;2022-12-20T08:18:26;12.75;;;3.45;;
72422;SDS011;60413;55.658;37.498;2022-12-20T08:20:54;6.40;;;3.10;;
72422;SDS011;60413;55.658;37.498;2022-12-20T08:23:20;7.93;;;3.28;;
72422;SDS011;60413;55.658;37.498;2022-12-20T08:25:46;11.38;;;3.38;;
72422;SDS011;60413;55.658;37.498;2022-12-20T08:28:12;10.73;;;4.07;;
72422;SDS011;60413;55.658;37.498;2022-12-20T08:30:38;4.80;;;2.42;;
72422;SDS011;60413;55.658;37.498;2022-12-20T08:33:03;9.35;;;3.78;;
72422;SDS011;60413;55.658;37.498;2022-12-20T08:35:29;7.40;;;3.60;;
72422;SDS011;60413;55.658;37.498;2022-12-20T08:37:55;6.80;;;3.25;;
72422;SDS011;60413;55.658;37.498;2022-12-20T08:40:21;9.82;;;3.65;;
72422;SDS011;60413;55.658;37.498;2022-12-20T08:42:47;8.10;;;3.08;;
72422;SDS011;60413;55.658;37.498;2022-12-20T08:45:13;10.13;;;4.25;;
72422;SDS011;60413;55.658;37.498;2022-12-20T08:47:39;10.70;;;4.22;;
72422;SDS011;60413;55.658;37.498;2022-12-20T08:50:07;11.48;;;3.53;;
72422;SDS011;60413;55.658;37.498;2022-12-20T08:52:33;13.43;;;4.53;;
72422;SDS011;60413;55.658;37.498;2022-12-20T08:54:59;10.82;;;4.32;;
72422;SDS011;60413;55.658;37.498;2022-12-20T08:57:25;7.45;;;3.17;;
72422;SDS011;60413;55.658;37.498;2022-12-20T08:59:53;9.90;;;3.72;;
72422;SDS011;60413;55.658;37.498;2022-12-20T09:02:21;7.65;;;3.78;;
72422;SDS011;60413;55.658;37.498;2022-12-20T09:04:47;8.90;;;3.72;;
72422;SDS011;60413;55.658;37.498;2022-12-20T09:07:13;8.75;;;3.20;;
72422;SDS011;60413;55.658;37.498;2022-12-20T09:09:39;8.25;;;3.80;;
72422;SDS011;60413;55.658;37.498;2022-12-20T09:12:05;9.60;;;4.15;;
72422;SDS011;60413;55.658;37.498;2022-12-20T09:14:31;7.93;;;3.70;;
72422;SDS011;60413;55.658;37.498;2022-12-20T09:16:57;10.00;;;3.92;;
72422;SDS011;60413;55.658;37.498;2022-12-20T09:19:23;6.95;;;3.05;;
72422;SDS011;60413;55.658;37.498;2022-12-20T09:21:49;9.95;;;4.55;;
72422;SDS011;60413;55.658;37.498;2022-12-20T09:24:14;10.13;;;3.60;;
72422;SDS011;60413;55.658;37.498;2022-12-20T09:26:41;6.50;;;3.35;;
72422;SDS011;60413;55.658;37.498;2022-12-20T09:29:07;10.43;;;3.80;;
72422;SDS011;60413;55.658;37.498;2022-12-20T09:31:32;7.60;;;3.63;;
72422;SDS011;60413;55.658;37.498;2022-12-20T09:33:59;8.70;;;3.50;;
72422;SDS011;60413;55.658;37.498;2022-12-20T09:36:25;10.15;;;3.42;;
72422;SDS011;60413;55.658;37.498;2022-12-20T09:38:53;8.88;;;3.13;;
72422;SDS011;60413;55.658;37.498;2022-12-20T09:41:38;8.10;;;3.30;;
72422;SDS011;60413;55.658;37.498;2022-12-20T09:44:18;5.40;;;2.75;;
72422;SDS011;60413;55.658;37.498;2022-12-20T09:46:53;10.73;;;3.63;;
72422;SDS011;60413;55.658;37.498;2022-12-20T09:49:26;7.97;;;2.78;;
72422;SDS011;60413;55.658;37.498;2022-12-20T09:54:43;6.88;;;2.72;;
72422;SDS011;60413;55.658;37.498;2022-12-20T10:00:47;8.88;;;3.17;;
72422;SDS011;60413;55.658;37.498;2022-12-20T10:03:22;9.63;;;3.72;;
72422;SDS011;60413;55.658;37.498;2022-12-20T10:05:54;9.07;;;3.78;;
72422;SDS011;60413;55.658;37.498;2022-12-20T10:14:37;10.55;;;3.80;;
72422;SDS011;60413;55.658;37.498;2022-12-20T10:16:56;8.95;;;3.40;;
72422;SDS011;60413;55.658;37.498;2022-12-20T10:19:41;7.63;;;3.05;;
72422;SDS011;60413;55.658;37.498;2022-12-20T10:22:20;5.70;;;2.92;;
72422;SDS011;60413;55.658;37.498;2022-12-20T10:24:53;7.75;;;3.25;;
72422;SDS011;60413;55.658;37.498;2022-12-20T10:27:24;6.85;;;3.28;;
72422;SDS011;60413;55.658;37.498;2022-12-20T10:29:50;8.85;;;3.50;;
72422;SDS011;60413;55.658;37.498;2022-12-20T10:32:20;11.88;;;3.60;;
72422;SDS011;60413;55.658;37.498;2022-12-20T10:34:49;10.38;;;3.90;;
72422;SDS011;60413;55.658;37.498;2022-12-20T10:37:20;10.77;;;3.72;;
72422;SDS011;60413;55.658;37.498;2022-12-20T10:39:47;10.68;;;3.72;;
72422;SDS011;60413;55.658;37.498;2022-12-20T10:42:34;11.32;;;3.80;;
72422;SDS011;60413;55.658;37.498;2022-12-20T10:45:03;8.45;;;4.05;;
72422;SDS011;60413;55.658;37.498;2022-12-20T10:47:50;15.32;;;5.63;;
72422;SDS011;60413;55.658;37.498;2022-12-20T10:50:17;17.45;;;4.18;;
72422;SDS011;60413;55.658;37.498;2022-12-20T10:52:59;8.77;;;3.40;;
72422;SDS011;60413;55.658;37.498;2022-12-20T10:55:37;10.20;;;3.67;;
72422;SDS011;60413;55.658;37.498;2022-12-20T11:00:46;9.50;;;3.58;;
72422;SDS011;60413;55.658;37.498;2022-12-20T11:05:55;8.65;;;3.80;;
72422;SDS011;60413;55.658;37.498;2022-12-20T11:08:24;7.45;;;3.67;;
72422;SDS011;60413;55.658;37.498;2022-12-20T11:13:43;9.07;;;3.95;;
72422;SDS011;60413;55.658;37.498;2022-12-20T11:16:21;13.38;;;4.35;;
72422;SDS011;60413;55.658;37.498;2022-12-20T11:19:10;8.48;;;3.20;;
72422;SDS011;60413;55.658;37.498;2022-12-20T11:27:35;11.02;;;3.95;;
72422;SDS011;60413;55.658;37.498;2022-12-20T11:52:09;6.00;;;2.53;;
72422;SDS011;60413;55.658;37.498;2022-12-20T11:54:48;8.70;;;3.05;;
72422;SDS011;60413;55.658;37.498;2022-12-20T11:59:53;7.13;;;2.58;;
72422;SDS011;60413;55.658;37.498;2022-12-20T12:02:43;8.48;;;2.72;;
72422;SDS011;60413;55.658;37.498;2022-12-20T12:07:43;7.72;;;3.22;;
72422;SDS011;60413;55.658;37.498;2022-12-20T12:10:49;7.60;;;2.97;;
72422;SDS011;60413;55.658;37.498;2022-12-20T12:13:13;9.23;;;3.10;;
72422;SDS011;60413;55.658;37.498;2022-12-20T12:18:15;9.23;;;3.22;;
72422;SDS011;60413;55.658;37.498;2022-12-20T12:26:02;7.45;;;2.88;;
72422;SDS011;60413;55.658;37.498;2022-12-20T12:28:37;12.00;;;3.95;;
72422;SDS011;60413;55.658;37.498;2022-12-20T12:31:03;11.88;;;3.83;;
72422;SDS011;60413;55.658;37.498;2022-12-20T12:33:36;8.52;;;3.95;;
72422;SDS011;60413;55.658;37.498;2022-12-20T12:39:00;9.55;;;3.45;;
72422;SDS011;60413;55.658;37.498;2022-12-20T12:41:34;8.63;;;3.45;;
72422;SDS011;60413;55.658;37.498;2022-12-20T12:44:22;7.30;;;3.30;;
72422;SDS011;60413;55.658;37.498;2022-12-20T12:46:54;8.75;;;3.97;;
72422;SDS011;60413;55.658;37.498;2022-12-20T12:49:28;10.13;;;4.03;;
72422;SDS011;60413;55.658;37.498;2022-12-20T12:51:57;8.82;;;3.45;;
72422;SDS011;60413;55.658;37.498;2022-12-20T12:54:43;10.55;;;3.63;;
72422;SDS011;60413;55.658;37.498;2022-12-20T12:57:16;13.63;;;4.77;;
72422;SDS011;60413;55.658;37.498;2022-12-20T12:59:43;11.77;;;4.10;;
72422;SDS011;60413;55.658;37.498;2022-12-20T13:04:56;15.57;;;5.50;;
72422;SDS011;60413;55.658;37.498;2022-12-20T13:17:51;10.38;;;3.70;;
72422;SDS011;60413;55.658;37.498;2022-12-20T13:20:24;9.50;;;3.25;;
72422;SDS011;60413;55.658;37.498;2022-12-20T13:25:33;10.23;;;3.85;;
72422;SDS011;60413;55.658;37.498;2022-12-20T13:31:28;9.50;;;3.80;;
72422;SDS011;60413;55.658;37.498;2022-12-20T13:38:38;9.75;;;3.97;;
72422;SDS011;60413;55.658;37.498;2022-12-20T13:44:09;11.60;;;4.25;;
72422;SDS011;60413;55.658;37.498;2022-12-20T13:49:52;9.40;;;3.95;;
72422;SDS011;60413;55.658;37.498;2022-12-20T13:54:47;13.80;;;4.63;;
72422;SDS011;60413;55.658;37.498;2022-12-20T13:57:26;15.70;;;4.50;;
72422;SDS011;60413;55.658;37.498;2022-12-20T13:59:56;14.02;;;4.63;;
72422;SDS011;60413;55.658;37.498;2022-12-20T14:02:32;13.40;;;4.57;;
72422;SDS011;60413;55.658;37.498;2022-12-20T14:05:02;9.40;;;3.60;;
72422;SDS011;60413;55.658;37.498;2022-12-20T14:07:32;13.18;;;4.03;;
72422;SDS011;60413;55.658;37.498;2022-12-20T14:10:00;11.25;;;4.32;;
72422;SDS011;60413;55.658;37.498;2022-12-20T14:12:29;7.93;;;3.47;;
72422;SDS011;60413;55.658;37.498;2022-12-20T14:14:57;11.05;;;4.38;;
72422;SDS011;60413;55.658;37.498;2022-12-20T14:17:27;8.60;;;3.97;;
72422;SDS011;60413;55.658;37.498;2022-12-20T14:22:30;8.10;;;4.35;;
72422;SDS011;60413;55.658;37.498;2022-12-20T14:24:57;15.82;;;4.30;;
72422;SDS011;60413;55.658;37.498;2022-12-20T14:27:23;11.15;;;4.15;;
72422;SDS011;60413;55.658;37.498;2022-12-20T14:29:54;11.05;;;4.03;;
72422;SDS011;60413;55.658;37.498;2022-12-20T14:32:22;11.25;;;4.75;;
72422;SDS011;60413;55.658;37.498;2022-12-20T14:34:48;12.10;;;4.85;;
72422;SDS011;60413;55.658;37.498;2022-12-20T14:42:38;12.38;;;4.72;;
72422;SDS011;60413;55.658;37.498;2022-12-20T14:47:33;9.40;;;4.15;;
72422;SDS011;60413;55.658;37.498;2022-12-20T14:50:02;15.50;;;4.93;;
72422;SDS011;60413;55.658;37.498;2022-12-20T14:54:58;13.93;;;4.80;;
72422;SDS011;60413;55.658;37.498;2022-12-20T15:05:07;13.63;;;4.38;;
72422;SDS011;60413;55.658;37.498;2022-12-20T15:07:54;13.88;;;4.80;;
72422;SDS011;60413;55.658;37.498;2022-12-20T15:10:19;9.82;;;3.65;;
72422;SDS011;60413;55.658;37.498;2022-12-20T15:12:45;15.13;;;5.43;;
72422;SDS011;60413;55.658;37.498;2022-12-20T15:15:14;16.55;;;5.45;;
72422;SDS011;60413;55.658;37.498;2022-12-20T15:17:42;10.10;;;4.28;;
72422;SDS011;60413;55.658;37.498;2022-12-20T15:20:13;12.40;;;4.75;;
72422;SDS011;60413;55.658;37.498;2022-12-20T15:22:40;12.18;;;4.97;;
72422;SDS011;60413;55.658;37.498;2022-12-20T15:25:15;13.70;;;4.22;;
72422;SDS011;60413;55.658;37.498;2022-12-20T15:27:42;11.65;;;4.10;;
72422;SDS011;60413;55.658;37.498;2022-12-20T15:30:11;11.25;;;4.18;;
72422;SDS011;60413;55.658;37.498;2022-12-20T15:32:38;13.60;;;4.13;;
72422;SDS011;60413;55.658;37.498;2022-12-20T15:35:11;10.70;;;4.50;;
72422;SDS011;60413;55.658;37.498;2022-12-20T15:37:38;10.30;;;4.22;;
72422;SDS011;60413;55.658;37.498;2022-12-20T15:40:04;10.70;;;4.72;;
72422;SDS011;60413;55.658;37.498;2022-12-20T15:42:31;10.60;;;4.45;;
72422;SDS011;60413;55.658;37.498;2022-12-20T15:44:57;10.48;;;4.65;;
72422;SDS011;60413;55.658;37.498;2022-12-20T15:47:25;13.90;;;4.80;;
72422;SDS011;60413;55.658;37.498;2022-12-20T15:49:51;11.45;;;4.40;;
72422;SDS011;60413;55.658;37.498;2022-12-20T15:52:21;16.15;;;5.07;;
72422;SDS011;60413;55.658;37.498;2022-12-20T15:54:48;12.15;;;4.85;;
72422;SDS011;60413;55.658;37.498;2022-12-20T15:57:14;13.88;;;4.32;;
72422;SDS011;60413;55.658;37.498;2022-12-20T15:59:40;15.45;;;5.95;;
72422;SDS011;60413;55.658;37.498;2022-12-20T16:02:23;12.60;;;5.10;;
72422;SDS011;60413;55.658;37.498;2022-12-20T16:04:51;14.88;;;4.47;;
72422;SDS011;60413;55.658;37.498;2022-12-20T16:07:31;15.60;;;4.95;;
72422;SDS011;60413;55.658;37.498;2022-12-20T16:09:57;13.52;;;4.45;;
72422;SDS011;60413;55.658;37.498;2022-12-20T16:12:27;15.18;;;4.88;;
72422;SDS011;60413;55.658;37.498;2022-12-20T16:14:56;11.50;;;3.83;;
72422;SDS011;60413;55.658;37.498;2022-12-20T16:17:22;12.82;;;4.63;;
72422;SDS011;60413;55.658;37.498;2022-12-20T16:19:48;10.57;;;4.57;;
72422;SDS011;60413;55.658;37.498;2022-12-20T16:22:15;13.70;;;4.65;;
72422;SDS011;60413;55.658;37.498;2022-12-20T16:24:43;10.60;;;4.45;;
72422;SDS011;60413;55.658;37.498;2022-12-20T16:27:09;10.98;;;4.25;;
72422;SDS011;60413;55.658;37.498;2022-12-20T16:29:35;9.57;;;4.60;;
72422;SDS011;60413;55.658;37.498;2022-12-20T16:32:01;13.20;;;5.90;;
72422;SDS011;60413;55.658;37.498;2022-12-20T16:34:27;14.40;;;5.35;;
72422;SDS011;60413;55.658;37.498;2022-12-20T16:36:52;11.55;;;4.70;;
72422;SDS011;60413;55.658;37.498;2022-12-20T16:39:21;11.70;;;4.55;;
72422;SDS011;60413;55.658;37.498;2022-12-20T16:41:52;11.30;;;4.68;;
72422;SDS011;60413;55.658;37.498;2022-12-20T16:44:19;12.00;;;4.18;;
72422;SDS011;60413;55.658;37.498;2022-12-20T16:46:52;12.60;;;4.75;;
72422;SDS011;60413;55.658;37.498;2022-12-20T16:49:17;17.13;;;4.80;;
72422;SDS011;60413;55.658;37.498;2022-12-20T16:51:44;14.82;;;5.47;;
72422;SDS011;60413;55.658;37.498;2022-12-20T16:54:13;10.98;;;4.72;;
72422;SDS011;60413;55.658;37.498;2022-12-20T16:56:49;12.65;;;5.07;;
72422;SDS011;60413;55.658;37.498;2022-12-20T16:59:22;11.63;;;4.45;;
72422;SDS011;60413;55.658;37.498;2022-12-20T17:01:50;10.95;;;3.80;;
72422;SDS011;60413;55.658;37.498;2022-12-20T17:04:18;11.95;;;4.68;;
72422;SDS011;60413;55.658;37.498;2022-12-20T17:06:45;11.55;;;3.92;;